createdAt,value
2023-05-20T00:02:14.147Z,78.30
2023-05-20T00:04:42.112Z,78.30
2023-05-20T00:07:09.164Z,78.10
2023-05-20T00:09:35.896Z,77.80
2023-05-20T00:12:02.816Z,78.00
2023-05-20T00:14:29.585Z,78.00
2023-05-20T00:16:56.454Z,78.10
2023-05-20T00:19:23.455Z,78.00
2023-05-20T00:21:50.463Z,78.10
2023-05-20T00:24:17.206Z,78.20
2023-05-20T00:26:44.009Z,78.80
2023-05-20T00:29:11.029Z,79.10
2023-05-20T00:31:37.847Z,79.40
2023-05-20T00:34:05.502Z,79.80
2023-05-20T00:36:32.265Z,80.30
2023-05-20T00:38:59.132Z,80.50
2023-05-20T00:41:26.223Z,80.30
2023-05-20T00:43:56.569Z,80.10
2023-05-20T00:46:25.210Z,80.00
2023-05-20T00:48:52.718Z,79.90
2023-05-20T00:51:20.559Z,79.90
2023-05-20T00:53:47.880Z,79.70
2023-05-20T00:56:14.694Z,79.20
2023-05-20T00:58:41.624Z,79.00
2023-05-20T01:01:08.379Z,78.80
2023-05-20T01:03:35.554Z,78.70
2023-05-20T01:06:03.207Z,78.90
2023-05-20T01:08:30.202Z,79.00
2023-05-20T01:11:26.109Z,79.10
2023-05-20T01:14:06.532Z,79.10
2023-05-20T01:16:35.495Z,79.40
2023-05-20T01:19:03.916Z,79.40
2023-05-20T01:21:32.315Z,79.60
2023-05-20T01:23:59.126Z,79.60
2023-05-20T01:26:27.117Z,79.60
2023-05-20T01:28:54.375Z,79.90
2023-05-20T01:31:24.830Z,79.90
2023-05-20T01:33:56.350Z,79.60
2023-05-20T01:36:23.629Z,79.50
2023-05-20T01:38:51.068Z,79.30
2023-05-20T01:41:18.271Z,79.10
2023-05-20T01:43:45.542Z,79.20
2023-05-20T01:46:12.431Z,78.50
2023-05-20T01:48:39.213Z,79.30
2023-05-20T01:51:06.030Z,80.60
2023-05-20T01:53:33.068Z,81.30
2023-05-20T01:55:59.949Z,81.10
2023-05-20T01:58:26.878Z,81.00
2023-05-20T02:00:53.606Z,80.80
2023-05-20T02:03:20.388Z,80.90
2023-05-20T02:05:47.164Z,80.70
2023-05-20T02:08:13.912Z,80.50
2023-05-20T02:10:40.651Z,80.30
2023-05-20T02:13:07.405Z,80.30
2023-05-20T02:15:34.687Z,80.20
2023-05-20T02:18:02.498Z,80.00
2023-05-20T02:20:29.488Z,80.50
2023-05-20T02:22:56.387Z,81.10
2023-05-20T02:25:23.127Z,81.10
2023-05-20T02:27:49.908Z,80.70
2023-05-20T02:30:17.323Z,80.90
2023-05-20T02:32:44.136Z,81.10
2023-05-20T02:35:11.717Z,80.90
2023-05-20T02:37:39.440Z,81.10
2023-05-20T02:40:06.979Z,81.00
2023-05-20T02:42:33.704Z,80.90
2023-05-20T02:45:00.904Z,80.80
2023-05-20T02:47:27.662Z,81.00
2023-05-20T02:49:54.461Z,81.20
2023-05-20T02:52:22.016Z,81.30
2023-05-20T02:54:48.884Z,81.00
2023-05-20T02:57:16.278Z,80.90
2023-05-20T02:59:43.022Z,80.60
2023-05-20T03:02:09.751Z,80.50
2023-05-20T03:04:38.768Z,80.70
2023-05-20T03:07:07.592Z,80.90
2023-05-20T03:09:34.394Z,81.10
2023-05-20T03:12:01.198Z,81.20
2023-05-20T03:14:27.943Z,81.30
2023-05-20T03:16:57.552Z,81.10
2023-05-20T03:19:24.419Z,81.00
2023-05-20T03:21:51.303Z,80.70
2023-05-20T03:24:18.242Z,80.70
2023-05-20T03:26:47.078Z,80.60
2023-05-20T03:29:14.174Z,80.80
2023-05-20T03:31:41.591Z,80.60
2023-05-20T03:34:08.465Z,80.50
2023-05-20T03:36:35.592Z,80.40
2023-05-20T03:39:04.188Z,80.50
2023-05-20T03:41:32.840Z,80.50
2023-05-20T03:43:59.623Z,80.70
2023-05-20T03:46:27.027Z,80.70
2023-05-20T03:48:53.794Z,81.30
2023-05-20T03:51:20.523Z,81.20
2023-05-20T03:53:48.484Z,81.30
2023-05-20T03:56:15.300Z,81.10
2023-05-20T03:58:42.974Z,81.20
2023-05-20T04:01:11.155Z,81.20
2023-05-20T04:03:37.975Z,81.10
2023-05-20T04:06:04.853Z,81.00
2023-05-20T04:08:31.801Z,81.10
2023-05-20T04:10:58.538Z,81.40
2023-05-20T04:13:25.895Z,81.20
2023-05-20T04:15:53.054Z,81.40
2023-05-20T04:18:19.972Z,81.50
2023-05-20T04:20:47.214Z,81.40
2023-05-20T04:23:14.867Z,81.40
2023-05-20T04:25:42.191Z,81.30
2023-05-20T04:28:10.604Z,80.90
2023-05-20T04:30:37.421Z,81.10
2023-05-20T04:33:04.357Z,81.50
2023-05-20T04:35:32.105Z,81.50
2023-05-20T04:38:02.779Z,81.30
2023-05-20T04:40:29.748Z,81.20
2023-05-20T04:43:00.786Z,80.90
2023-05-20T04:45:27.637Z,80.80
2023-05-20T04:47:54.430Z,80.80
2023-05-20T04:50:21.936Z,80.90
2023-05-20T04:52:49.470Z,81.00
2023-05-20T04:55:16.271Z,81.20
2023-05-20T04:57:43.449Z,81.30
2023-05-20T05:00:13.207Z,81.20
2023-05-20T05:02:40.855Z,81.20
2023-05-20T05:05:08.390Z,81.30
2023-05-20T05:07:35.372Z,80.90
2023-05-20T05:10:02.248Z,80.80
2023-05-20T05:12:30.944Z,80.40
2023-05-20T05:14:59.169Z,79.70
2023-05-20T05:17:26.934Z,79.90
2023-05-20T05:19:53.787Z,79.40
2023-05-20T05:22:20.644Z,79.10
2023-05-20T05:24:47.390Z,78.40
2023-05-20T05:27:14.333Z,78.40
2023-05-20T05:29:41.032Z,78.40
2023-05-20T05:32:07.961Z,78.00
2023-05-20T05:34:34.748Z,77.80
2023-05-20T05:37:01.495Z,78.10
2023-05-20T05:39:28.309Z,77.90
2023-05-20T05:41:56.159Z,77.90
2023-05-20T05:44:23.142Z,77.30
2023-05-20T05:46:49.998Z,76.90
2023-05-20T05:49:17.252Z,76.70
2023-05-20T05:51:44.502Z,76.80
2023-05-20T05:54:11.937Z,76.60
2023-05-20T05:56:38.899Z,76.90
2023-05-20T05:59:05.971Z,76.90
2023-05-20T06:01:32.824Z,76.80
2023-05-20T06:03:59.943Z,76.40
2023-05-20T06:06:26.963Z,76.00
2023-05-20T06:08:53.994Z,76.00
2023-05-20T06:11:21.847Z,76.10
2023-05-20T06:13:48.629Z,76.00
2023-05-20T06:16:16.565Z,76.10
2023-05-20T06:18:43.677Z,76.00
2023-05-20T06:21:10.499Z,76.20
2023-05-20T06:23:37.336Z,76.40
2023-05-20T06:26:06.638Z,76.10
2023-05-20T06:28:33.523Z,76.50
2023-05-20T06:31:00.782Z,76.40
2023-05-20T06:33:31.110Z,75.90
2023-05-20T06:36:04.189Z,75.50
2023-05-20T06:38:31.049Z,75.50
2023-05-20T06:40:57.827Z,75.60
2023-05-20T06:43:24.561Z,75.50
2023-05-20T06:46:03.590Z,75.60
2023-05-20T06:48:38.900Z,75.10
2023-05-20T06:51:09.321Z,74.50
2023-05-20T06:53:36.565Z,73.60
2023-05-20T06:56:03.603Z,72.70
2023-05-20T06:58:31.697Z,71.90
2023-05-20T07:00:58.440Z,71.30
2023-05-20T07:03:26.173Z,70.40
2023-05-20T07:05:53.031Z,70.30
2023-05-20T07:08:20.547Z,70.40
2023-05-20T07:10:47.302Z,70.50
2023-05-20T07:13:17.779Z,69.80
2023-05-20T07:15:47.789Z,70.00
2023-05-20T07:18:16.112Z,71.20
2023-05-20T07:20:45.118Z,70.30
2023-05-20T07:23:23.788Z,70.90
2023-05-20T07:25:53.687Z,71.30
2023-05-20T07:28:22.296Z,71.20
2023-05-20T07:30:54.173Z,71.10
2023-05-20T07:33:27.657Z,70.90
2023-05-20T07:35:54.588Z,70.40
2023-05-20T07:38:22.405Z,70.20
2023-05-20T07:40:55.994Z,70.20
2023-05-20T07:43:22.900Z,70.20
2023-05-20T07:45:49.815Z,69.80
2023-05-20T07:48:16.606Z,69.00
2023-05-20T07:50:44.585Z,68.40
2023-05-20T07:53:12.065Z,67.40
2023-05-20T07:55:39.320Z,66.30
2023-05-20T07:58:06.910Z,65.40
2023-05-20T08:00:35.472Z,64.00
2023-05-20T08:03:05.088Z,64.60
2023-05-20T08:05:42.148Z,63.20
2023-05-20T08:08:10.475Z,63.80
2023-05-20T08:10:49.020Z,64.80
2023-05-20T08:13:15.781Z,64.40
2023-05-20T08:15:42.610Z,63.80
2023-05-20T08:18:09.582Z,64.00
2023-05-20T08:20:37.409Z,64.40
2023-05-20T08:23:04.126Z,64.50
2023-05-20T08:25:31.186Z,63.40
2023-05-20T08:27:58.143Z,63.60
2023-05-20T08:30:25.564Z,62.60
2023-05-20T08:32:52.874Z,61.40
2023-05-20T08:35:22.451Z,61.90
2023-05-20T08:37:50.913Z,60.90
2023-05-20T08:40:17.921Z,61.50
2023-05-20T08:42:44.844Z,59.70
2023-05-20T08:45:15.171Z,60.00
2023-05-20T08:47:43.495Z,61.20
2023-05-20T08:50:14.530Z,61.10
2023-05-20T08:52:47.059Z,61.90
2023-05-20T08:55:23.574Z,61.30
2023-05-20T08:57:51.351Z,61.30
2023-05-20T09:00:18.560Z,61.30
2023-05-20T09:02:46.327Z,61.80
2023-05-20T09:05:13.919Z,61.90
2023-05-20T09:07:42.637Z,62.30
2023-05-20T09:10:10.672Z,62.00
2023-05-20T09:12:38.633Z,62.20
2023-05-20T09:15:06.367Z,62.10
2023-05-20T09:17:36.811Z,61.80
2023-05-20T09:20:11.075Z,61.70
2023-05-20T09:22:39.568Z,61.50
2023-05-20T09:25:06.655Z,61.10
2023-05-20T09:27:34.000Z,62.40
2023-05-20T09:30:00.973Z,62.70
2023-05-20T09:32:28.957Z,62.40
2023-05-20T09:34:55.788Z,61.30
2023-05-20T09:37:24.467Z,61.60
2023-05-20T09:39:59.578Z,60.30
2023-05-20T09:42:40.277Z,60.70
2023-05-20T09:45:09.401Z,61.40
2023-05-20T09:47:42.969Z,60.70
2023-05-20T09:50:10.303Z,60.60
2023-05-20T09:52:38.660Z,60.60
2023-05-20T09:55:10.454Z,60.50
2023-05-20T09:57:37.888Z,60.90
2023-05-20T10:00:08.680Z,60.50
2023-05-20T10:02:52.433Z,60.30
2023-05-20T10:05:27.079Z,60.50
2023-05-20T10:08:22.244Z,59.60
2023-05-20T10:10:54.561Z,58.70
2023-05-20T10:13:44.812Z,60.10
2023-05-20T10:16:38.774Z,58.50
2023-05-20T10:19:11.984Z,58.30
2023-05-20T10:21:38.854Z,57.00
2023-05-20T10:24:09.987Z,57.80
2023-05-20T10:26:38.300Z,58.40
2023-05-20T10:29:18.159Z,58.80
2023-05-20T10:31:49.350Z,59.10
2023-05-20T10:34:18.007Z,58.80
2023-05-20T10:36:53.851Z,58.90
2023-05-20T10:39:29.927Z,59.80
2023-05-20T10:42:14.843Z,59.70
2023-05-20T10:44:45.449Z,60.40
2023-05-20T10:49:49.217Z,59.90
2023-05-20T10:52:17.838Z,59.10
2023-05-20T10:54:56.205Z,58.50
2023-05-20T10:57:24.229Z,58.50
2023-05-20T10:59:51.373Z,58.60
2023-05-20T11:02:18.760Z,58.10
2023-05-20T11:04:47.122Z,57.80
2023-05-20T11:07:24.224Z,58.00
2023-05-20T11:09:51.204Z,58.20
2023-05-20T11:12:18.016Z,57.90
2023-05-20T11:14:44.760Z,57.30
2023-05-20T11:17:14.363Z,57.50
2023-05-20T11:19:41.550Z,57.60
2023-05-20T11:22:08.551Z,58.30
2023-05-20T11:24:35.543Z,58.00
2023-05-20T11:27:02.511Z,57.50
2023-05-20T11:29:32.132Z,56.80
2023-05-20T11:31:59.962Z,57.40
2023-05-20T11:34:33.105Z,57.00
2023-05-20T11:36:59.832Z,57.60
2023-05-20T11:39:30.045Z,57.90
2023-05-20T11:41:57.983Z,56.60
2023-05-20T11:44:25.462Z,57.40
2023-05-20T11:46:58.824Z,57.20
2023-05-20T11:49:25.563Z,57.70
2023-05-20T11:51:52.306Z,57.70
2023-05-20T11:54:22.591Z,57.10
2023-05-20T11:56:49.718Z,57.50
2023-05-20T11:59:16.436Z,57.30
2023-05-20T12:01:43.471Z,56.20
2023-05-20T12:04:10.679Z,57.10
2023-05-20T12:06:37.626Z,57.20
2023-05-20T12:09:08.683Z,57.20
2023-05-20T12:11:37.067Z,57.00
2023-05-20T12:14:04.258Z,57.00
2023-05-20T12:16:32.707Z,56.70
2023-05-20T12:18:59.832Z,57.10
2023-05-20T12:21:27.070Z,56.10
2023-05-20T12:23:57.637Z,56.30
2023-05-20T12:26:26.037Z,56.50
2023-05-20T12:28:53.357Z,56.70
2023-05-20T12:31:20.658Z,55.50
2023-05-20T12:33:47.797Z,55.60
2023-05-20T12:36:15.011Z,55.70
2023-05-20T12:38:41.885Z,55.50
2023-05-20T12:41:08.801Z,55.20
2023-05-20T12:43:38.556Z,55.10
2023-05-20T12:46:05.858Z,54.40
2023-05-20T12:48:32.743Z,54.10
2023-05-20T12:50:59.819Z,54.30
2023-05-20T12:53:26.528Z,52.30
2023-05-20T12:55:53.595Z,52.30
2023-05-20T12:58:20.487Z,52.70
2023-05-20T13:00:47.216Z,51.60
2023-05-20T13:03:14.119Z,51.90
2023-05-20T13:05:40.962Z,51.30
2023-05-20T13:08:09.031Z,51.40
2023-05-20T13:10:36.243Z,51.70
2023-05-20T13:13:05.823Z,52.10
2023-05-20T13:15:33.446Z,52.40
2023-05-20T13:18:01.447Z,53.50
2023-05-20T13:20:30.092Z,53.80
2023-05-20T13:22:56.854Z,53.50
2023-05-20T13:25:23.707Z,54.10
2023-05-20T13:27:50.845Z,53.90
2023-05-20T13:30:17.739Z,53.70
2023-05-20T13:32:44.571Z,53.20
2023-05-20T13:35:12.900Z,53.50
2023-05-20T13:37:39.647Z,53.90
2023-05-20T13:40:07.234Z,53.60
2023-05-20T13:42:33.974Z,53.70
2023-05-20T13:45:00.799Z,54.20
2023-05-20T13:47:27.669Z,54.00
2023-05-20T13:49:54.570Z,54.50
2023-05-20T13:52:21.357Z,54.20
2023-05-20T13:54:48.724Z,54.60
2023-05-20T13:57:15.852Z,53.90
2023-05-20T13:59:42.568Z,52.50
2023-05-20T14:02:09.420Z,50.90
2023-05-20T14:04:39.243Z,49.50
2023-05-20T14:07:07.771Z,49.00
2023-05-20T14:09:36.338Z,47.80
2023-05-20T14:12:03.133Z,47.60
2023-05-20T14:14:29.896Z,47.30
2023-05-20T14:16:56.650Z,48.30
2023-05-20T14:19:23.428Z,49.30
2023-05-20T14:21:50.277Z,48.80
2023-05-20T14:24:17.112Z,48.90
2023-05-20T14:26:43.895Z,49.60
2023-05-20T14:29:10.789Z,48.90
2023-05-20T14:31:39.288Z,48.60
2023-05-20T14:34:06.340Z,47.60
2023-05-20T14:36:33.094Z,47.30
2023-05-20T14:38:59.862Z,47.90
2023-05-20T14:41:26.588Z,46.20
2023-05-20T14:43:53.322Z,45.90
2023-05-20T14:46:20.121Z,45.20
2023-05-20T14:48:46.895Z,44.90
2023-05-20T14:51:13.650Z,44.90
2023-05-20T14:53:40.462Z,44.50
2023-05-20T14:56:07.190Z,44.60
2023-05-20T14:58:34.901Z,44.60
2023-05-20T15:01:01.749Z,43.90
2023-05-20T15:03:28.731Z,42.50
2023-05-20T15:05:55.832Z,42.80
2023-05-20T15:08:22.559Z,42.50
2023-05-20T15:10:50.394Z,42.70
2023-05-20T15:13:17.257Z,42.90
2023-05-20T15:15:44.508Z,43.10
2023-05-20T15:18:11.650Z,42.60
2023-05-20T15:20:38.522Z,42.90
2023-05-20T15:23:05.371Z,42.50
2023-05-20T15:25:32.261Z,42.20
2023-05-20T15:27:59.062Z,42.70
2023-05-20T15:30:25.788Z,43.70
2023-05-20T15:32:52.581Z,44.60
2023-05-20T15:35:19.432Z,44.20
2023-05-20T15:37:46.133Z,44.80
2023-05-20T15:40:12.925Z,45.30
2023-05-20T15:42:39.645Z,45.10
2023-05-20T15:45:07.260Z,45.40
2023-05-20T15:47:34.094Z,45.90
2023-05-20T15:50:05.102Z,46.30
2023-05-20T15:52:31.866Z,46.60
2023-05-20T15:54:58.805Z,46.70
2023-05-20T15:57:25.674Z,46.20
2023-05-20T15:59:52.486Z,47.20
2023-05-20T16:02:19.366Z,47.40
2023-05-20T16:04:46.577Z,47.10
2023-05-20T16:07:14.260Z,47.50
2023-05-20T16:09:41.140Z,47.00
2023-05-20T16:12:07.854Z,47.00
2023-05-20T16:14:34.616Z,46.50
2023-05-20T16:17:01.350Z,46.60
2023-05-20T16:19:28.494Z,47.20
2023-05-20T16:21:56.754Z,47.10
2023-05-20T16:24:23.446Z,46.90
2023-05-20T16:26:50.181Z,47.30
2023-05-20T16:29:16.937Z,47.60
2023-05-20T16:31:46.617Z,48.30
2023-05-20T16:34:14.889Z,48.50
2023-05-20T16:36:41.612Z,49.60
2023-05-20T16:39:08.414Z,49.60
2023-05-20T16:41:35.120Z,50.10
2023-05-20T16:44:01.957Z,49.80
2023-05-20T16:46:28.856Z,49.40
2023-05-20T16:48:55.652Z,49.30
2023-05-20T16:51:22.651Z,49.40
2023-05-20T16:53:49.356Z,49.60
2023-05-20T16:56:16.200Z,49.60
2023-05-20T16:58:42.974Z,49.90
2023-05-20T17:01:09.748Z,50.00
2023-05-20T17:03:36.499Z,50.50
2023-05-20T17:06:03.270Z,50.70
2023-05-20T17:08:29.946Z,50.50
2023-05-20T17:10:57.558Z,51.20
2023-05-20T17:13:24.270Z,51.30
2023-05-20T17:15:51.069Z,51.50
2023-05-20T17:18:17.798Z,51.70
2023-05-20T17:20:44.644Z,51.80
2023-05-20T17:23:11.357Z,52.10
2023-05-20T17:25:38.082Z,52.30
2023-05-20T17:28:04.915Z,52.40
2023-05-20T17:30:31.803Z,52.90
2023-05-20T17:32:58.751Z,53.30
2023-05-20T17:35:25.874Z,53.40
2023-05-20T17:37:53.543Z,53.70
2023-05-20T17:40:20.630Z,53.70
2023-05-20T17:42:50.165Z,54.10
2023-05-20T17:45:16.970Z,54.60
2023-05-20T17:47:43.737Z,54.70
2023-05-20T17:50:10.952Z,54.80
2023-05-20T17:52:37.868Z,55.20
2023-05-20T17:55:05.671Z,55.60
2023-05-20T17:57:33.060Z,56.00
2023-05-20T17:59:59.782Z,56.20
2023-05-20T18:02:27.072Z,56.70
2023-05-20T18:04:54.079Z,57.00
2023-05-20T18:07:21.108Z,57.30
2023-05-20T18:09:48.027Z,57.70
2023-05-20T18:12:14.742Z,58.20
2023-05-20T18:14:41.495Z,58.50
2023-05-20T18:17:08.260Z,59.00
2023-05-20T18:19:35.451Z,59.40
2023-05-20T18:22:03.000Z,59.80
2023-05-20T18:24:29.886Z,60.20
2023-05-20T18:26:57.362Z,60.40
2023-05-20T18:29:26.710Z,60.80
2023-05-20T18:31:53.727Z,61.10
2023-05-20T18:34:20.881Z,61.80
2023-05-20T18:36:47.766Z,61.90
2023-05-20T18:39:20.163Z,62.20
2023-05-20T18:41:47.769Z,62.40
2023-05-20T18:44:15.966Z,62.60
2023-05-20T18:46:43.160Z,62.70
2023-05-20T18:49:10.655Z,62.90
2023-05-20T18:51:39.966Z,63.10
2023-05-20T18:54:07.167Z,63.20
2023-05-20T18:56:34.347Z,63.40
2023-05-20T18:59:01.248Z,63.70
2023-05-20T19:01:28.110Z,63.80
2023-05-20T19:03:54.926Z,63.70
2023-05-20T19:06:21.938Z,63.90
2023-05-20T19:08:49.487Z,64.40
2023-05-20T19:11:16.327Z,64.90
2023-05-20T19:13:43.147Z,65.70
2023-05-20T19:16:10.053Z,66.10
2023-05-20T19:18:36.829Z,67.10
2023-05-20T19:21:03.677Z,67.40
2023-05-20T19:23:30.550Z,67.70
2023-05-20T19:25:57.288Z,67.70
2023-05-20T19:28:24.010Z,67.90
2023-05-20T19:30:50.970Z,68.10
2023-05-20T19:33:18.195Z,68.10
2023-05-20T19:35:44.901Z,67.80
2023-05-20T19:38:12.383Z,67.80
2023-05-20T19:40:39.155Z,67.90
2023-05-20T19:43:06.300Z,68.10
2023-05-20T19:45:33.133Z,67.70
2023-05-20T19:48:00.047Z,68.00
2023-05-20T19:50:26.842Z,67.50
2023-05-20T19:52:53.622Z,67.60
2023-05-20T19:55:20.358Z,67.60
2023-05-20T19:57:53.018Z,67.70
2023-05-20T20:00:21.376Z,68.00
2023-05-20T20:02:48.604Z,67.90
2023-05-20T20:05:15.669Z,67.90
2023-05-20T20:07:42.519Z,68.00
2023-05-20T20:10:10.392Z,68.20
2023-05-20T20:12:37.203Z,68.60
2023-05-20T20:15:04.788Z,68.70
2023-05-20T20:17:33.609Z,68.70
2023-05-20T20:20:00.878Z,68.80
2023-05-20T20:22:27.755Z,69.10
2023-05-20T20:24:54.465Z,69.30
2023-05-20T20:27:23.646Z,69.20
2023-05-20T20:29:50.490Z,69.20
2023-05-20T20:32:17.355Z,69.30
2023-05-20T20:34:44.124Z,69.60
2023-05-20T20:37:14.550Z,69.90
2023-05-20T20:39:41.330Z,70.20
2023-05-20T20:42:08.106Z,70.50
2023-05-20T20:44:34.918Z,70.30
2023-05-20T20:47:03.951Z,70.90
2023-05-20T20:49:31.933Z,70.80
2023-05-20T20:51:58.984Z,71.80
2023-05-20T20:54:26.353Z,72.40
2023-05-20T20:56:56.559Z,72.40
2023-05-20T20:59:26.328Z,72.30
2023-05-20T21:01:53.640Z,71.80
2023-05-20T21:04:20.776Z,72.10
2023-05-20T21:06:47.580Z,72.50
2023-05-20T21:09:15.189Z,72.50
2023-05-20T21:11:42.436Z,73.20
2023-05-20T21:14:09.843Z,73.10
2023-05-20T21:16:36.937Z,72.30
2023-05-20T21:19:03.882Z,72.40
2023-05-20T21:21:31.568Z,72.70
2023-05-20T21:23:58.354Z,72.80
2023-05-20T21:26:25.729Z,73.30
2023-05-20T21:28:52.758Z,73.40
2023-05-20T21:31:22.714Z,73.20
2023-05-20T21:33:49.500Z,73.50
2023-05-20T21:36:16.446Z,73.40
2023-05-20T21:38:43.200Z,73.80
2023-05-20T21:41:09.967Z,74.20
2023-05-20T21:43:37.354Z,74.30
2023-05-20T21:46:04.625Z,73.90
2023-05-20T21:48:31.592Z,73.10
2023-05-20T21:50:58.288Z,72.70
2023-05-20T21:53:25.164Z,73.90
2023-05-20T21:55:51.953Z,74.10
2023-05-20T21:58:18.655Z,74.20
2023-05-20T22:00:45.391Z,74.90
2023-05-20T22:03:13.019Z,75.60
2023-05-20T22:05:40.860Z,75.40
2023-05-20T22:08:07.718Z,75.10
2023-05-20T22:10:36.442Z,75.40
2023-05-20T22:13:03.446Z,75.30
2023-05-20T22:15:31.447Z,75.20
2023-05-20T22:17:58.638Z,74.50
2023-05-20T22:20:30.403Z,75.30
2023-05-20T22:22:57.146Z,75.80
2023-05-20T22:25:23.865Z,75.10
2023-05-20T22:27:50.634Z,75.60
2023-05-20T22:30:17.604Z,75.50
2023-05-20T22:32:44.497Z,75.40
2023-05-20T22:35:13.058Z,75.50
2023-05-20T22:37:39.824Z,76.00
2023-05-20T22:40:07.380Z,75.60
2023-05-20T22:42:34.042Z,76.10
2023-05-20T22:45:00.874Z,75.60
2023-05-20T22:47:28.982Z,75.10
2023-05-20T22:49:57.367Z,74.80
2023-05-20T22:52:25.331Z,74.30
2023-05-20T22:54:52.159Z,74.00
2023-05-20T22:57:18.866Z,74.50
2023-05-20T22:59:45.604Z,74.90
2023-05-20T23:02:12.288Z,74.70
2023-05-20T23:04:39.050Z,73.90
2023-05-20T23:07:06.391Z,74.80
2023-05-20T23:09:33.159Z,75.30
2023-05-20T23:12:00.196Z,75.30
2023-05-20T23:14:27.321Z,75.50
2023-05-20T23:16:54.131Z,76.00
2023-05-20T23:19:20.977Z,76.10
2023-05-20T23:21:47.847Z,75.60
2023-05-20T23:24:15.244Z,75.70
2023-05-20T23:26:42.966Z,75.50
2023-05-20T23:29:10.416Z,75.30
2023-05-20T23:31:37.164Z,74.60
2023-05-20T23:34:04.048Z,74.40
2023-05-20T23:36:34.278Z,74.40
2023-05-20T23:39:02.190Z,75.10
2023-05-20T23:41:28.945Z,75.60
2023-05-20T23:43:55.797Z,76.60
2023-05-20T23:46:22.654Z,76.30
2023-05-20T23:48:49.901Z,76.10
2023-05-20T23:51:16.650Z,77.40
2023-05-20T23:53:44.201Z,77.10
2023-05-20T23:56:11.272Z,77.20
2023-05-20T23:58:38.044Z,76.90
